Time;durP1;ratioP1;P1;durP2;ratioP2;P2;SDS_P1;SDS_P2;PMS_P1;PMS_P2;Temp;Humidity;BMP_temperature;BMP_pressure;BME280_temperature;BME280_humidity;BME280_pressure;Samples;Min_cycle;Max_cycle;Signal;HPM_P1;HPM_P2
2022/10/14 00:02:58;;;;;;;8.88;6.70;;;;;;;12.40;100.00;98007.13;18001778;32;20132;-62
2022/10/14 00:13:00;;;;;;;9.93;6.70;;;;;;;12.27;100.00;97994.94;18159880;32;20122;-62
2022/10/14 00:23:03;;;;;;;7.80;6.53;;;;;;;12.15;100.00;97996.00;18216313;32;20077;-61
2022/10/14 00:33:05;;;;;;;9.02;6.70;;;;;;;12.13;100.00;97990.06;18231926;32;20055;-61
2022/10/14 00:43:13;;;;;;;9.57;6.85;;;;;;;12.16;100.00;97984.09;18236442;32;20080;-62
2022/10/14 00:53:16;;;;;;;12.37;5.95;;;;;;;12.17;100.00;97982.22;18241065;32;20085;-62
2022/10/14 01:03:21;;;;;;;8.13;6.17;;;;;;;12.18;100.00;97976.50;18168749;32;20089;-61
2022/10/14 01:13:49;;;;;;;9.55;6.35;;;;;;;12.20;100.00;97971.63;18168631;32;20074;-61
2022/10/14 01:24:18;;;;;;;9.07;5.47;;;;;;;12.20;100.00;97960.78;18168185;32;20082;-62
2022/10/14 01:34:29;;;;;;;8.30;6.30;;;;;;;12.22;100.00;97956.97;18184580;32;20101;-64
2022/10/14 01:44:34;;;;;;;6.85;6.12;;;;;;;12.22;100.00;97941.50;18237641;32;20046;-61
2022/10/14 01:54:40;;;;;;;7.22;6.10;;;;;;;12.25;100.00;97951.84;18237105;32;20113;-62
2022/10/14 02:04:42;;;;;;;9.35;6.45;;;;;;;12.27;100.00;97943.44;18238166;32;20065;-64
2022/10/14 02:14:47;;;;;;;8.30;5.78;;;;;;;12.29;100.00;97954.78;18165533;32;20085;-61
2022/10/14 02:24:57;;;;;;;10.30;6.10;;;;;;;12.31;100.00;97922.81;18165058;32;20084;-61
2022/10/14 02:35:01;;;;;;;9.13;6.85;;;;;;;12.31;100.00;97928.22;18164825;32;20143;-61
2022/10/14 02:45:05;;;;;;;10.82;6.62;;;;;;;12.29;100.00;97914.94;18222463;32;20063;-61
2022/10/14 02:55:08;;;;;;;8.52;6.57;;;;;;;12.30;100.00;97904.91;18163286;32;20066;-61
2022/10/14 03:05:10;;;;;;;9.88;7.20;;;;;;;12.31;100.00;97895.69;18162966;32;20071;-61
2022/10/14 03:15:13;;;;;;;8.90;6.70;;;;;;;12.34;100.00;97884.28;18150226;32;20391;-62
2022/10/14 03:25:15;;;;;;;10.25;6.93;;;;;;;12.36;100.00;97876.69;18219168;32;20090;-62
2022/10/14 03:35:18;;;;;;;9.60;7.10;;;;;;;12.37;100.00;97868.28;18233986;32;20109;-62
2022/10/14 03:45:20;;;;;;;9.20;6.22;;;;;;;12.38;100.00;97863.66;18232505;32;20089;-62
2022/10/14 03:55:23;;;;;;;7.90;6.07;;;;;;;12.39;100.00;97857.16;18231360;32;20498;-62
2022/10/14 04:05:25;;;;;;;9.25;6.30;;;;;;;12.39;100.00;97849.03;18232641;32;20099;-61
2022/10/14 04:15:27;;;;;;;8.05;6.10;;;;;;;12.39;100.00;97835.47;18231634;32;20469;-62
2022/10/14 04:25:30;;;;;;;9.43;6.80;;;;;;;12.37;100.00;97824.06;18231703;32;20117;-61
2022/10/14 04:35:32;;;;;;;9.00;5.72;;;;;;;12.32;100.00;97813.25;18158947;32;20449;-62
2022/10/14 04:45:34;;;;;;;8.20;6.25;;;;;;;12.22;100.00;97799.75;18034757;32;20070;-61
2022/10/14 04:55:36;;;;;;;7.80;5.72;;;;;;;12.11;100.00;97788.94;18034074;32;20067;-62
2022/10/14 05:05:39;;;;;;;8.35;6.20;;;;;;;11.95;100.00;97771.94;18043100;32;20405;-61
2022/10/14 05:15:41;;;;;;;7.07;5.75;;;;;;;11.99;100.00;97761.34;18201449;32;20101;-61
2022/10/14 05:25:44;;;;;;;6.82;5.32;;;;;;;12.00;100.00;97762.97;18229921;32;20109;-61
2022/10/14 05:35:46;;;;;;;7.68;5.43;;;;;;;12.01;100.00;97751.84;18239615;32;20069;-61
2022/10/14 05:46:01;;;;;;;6.25;5.10;;;;;;;12.02;100.00;97752.66;18238743;32;20103;-61
2022/10/14 05:56:08;;;;;;;7.15;5.07;;;;;;;12.03;100.00;97751.56;18224445;32;20054;-61
2022/10/14 06:06:15;;;;;;;10.95;6.78;;;;;;;12.07;100.00;97733.66;18238149;32;20055;-61
2022/10/14 06:16:17;;;;;;;8.20;5.85;;;;;;;12.12;100.00;97733.62;18237532;32;20092;-61
2022/10/14 06:26:20;;;;;;;9.48;7.10;;;;;;;12.19;100.00;97741.47;18236089;32;20099;-61
2022/10/14 06:36:22;;;;;;;9.60;6.28;;;;;;;12.25;100.00;97744.97;18236167;32;20054;-61
2022/10/14 06:46:25;;;;;;;11.65;6.90;;;;;;;12.37;100.00;97742.72;18235064;32;20114;-61
2022/10/14 06:56:27;;;;;;;14.43;7.53;;;;;;;12.49;100.00;97743.19;18222111;32;20121;-61
2022/10/14 07:06:30;;;;;;;11.43;7.65;;;;;;;12.65;100.00;97746.63;18235887;32;20084;-61
2022/10/14 07:16:33;;;;;;;11.18;7.18;;;;;;;12.78;100.00;97747.88;18234884;32;20446;-61
2022/10/14 07:26:35;;;;;;;9.40;6.68;;;;;;;12.96;100.00;97743.69;18234575;32;20055;-61
2022/10/14 07:36:38;;;;;;;10.43;6.85;;;;;;;13.21;100.00;97748.09;18234004;32;20100;-62
2022/10/14 07:46:43;;;;;;;9.68;6.18;;;;;;;13.38;100.00;97766.69;18234080;32;20070;-61
2022/10/14 07:56:50;;;;;;;7.05;5.47;;;;;;;13.55;100.00;97779.03;18230592;32;20050;-62
2022/10/14 08:06:52;;;;;;;6.00;4.95;;;;;;;13.86;100.00;97765.16;18232759;32;20050;-61
2022/10/14 08:16:55;;;;;;;12.40;5.70;;;;;;;14.10;100.00;97778.75;18232150;32;20058;-61
2022/10/14 08:26:59;;;;;;;10.25;5.80;;;;;;;14.35;100.00;97769.44;18230907;32;20069;-62
2022/10/14 08:37:02;;;;;;;8.27;6.57;;;;;;;14.66;100.00;97765.53;18231437;32;20141;-61
2022/10/14 08:47:12;;;;;;;7.72;5.65;;;;;;;14.81;100.00;97767.22;18230946;32;20071;-61
2022/10/14 08:57:21;;;;;;;6.00;4.65;;;;;;;15.05;100.00;97767.91;18230168;32;20094;-62
2022/10/14 09:07:26;;;;;;;6.78;5.37;;;;;;;15.37;100.00;97773.66;18237588;32;20179;-62
2022/10/14 09:17:42;;;;;;;7.78;4.80;;;;;;;15.30;100.00;97789.59;18240258;32;20062;-61
2022/10/14 09:27:44;;;;;;;7.65;4.95;;;;;;;15.31;100.00;97789.28;18168299;32;20066;-61
2022/10/14 09:37:52;;;;;;;8.60;5.85;;;;;;;15.53;100.00;97780.47;18043012;32;20108;-61
2022/10/14 09:48:08;;;;;;;8.20;5.40;;;;;;;15.78;100.00;97786.56;18042734;32;20079;-61
2022/10/14 09:58:17;;;;;;;8.73;6.35;;;;;;;15.87;100.00;97773.88;18042346;32;20097;-62
2022/10/14 10:08:20;;;;;;;9.95;7.97;;;;;;;16.14;100.00;97769.53;18055086;32;20122;-62
2022/10/14 10:18:23;;;;;;;11.18;8.20;;;;;;;16.33;100.00;97766.69;18111718;32;20073;-61
2022/10/14 10:28:31;;;;;;;11.45;7.55;;;;;;;16.30;100.00;97756.38;18112374;32;20095;-61
2022/10/14 10:38:50;;;;;;;8.90;5.85;;;;;;;16.62;100.00;97754.59;18110889;32;20055;-62
2022/10/14 10:49:23;;;;;;;7.95;5.78;;;;;;;16.94;100.00;97753.63;18110460;32;20427;-62
2022/10/14 10:59:29;;;;;;;6.32;4.20;;;;;;;17.17;100.00;97731.78;18196252;32;20050;-62
2022/10/14 11:20:36;;;;;;;8.70;5.78;;;;;;;17.45;100.00;97701.53;18234882;32;20054;-62
2022/10/14 11:31:16;;;;;;;7.87;6.10;;;;;;;17.42;100.00;97692.03;18162041;32;20114;-61
2022/10/14 11:42:01;;;;;;;7.90;5.20;;;;;;;17.16;100.00;97683.69;18037444;32;20536;-61
2022/10/14 11:52:15;;;;;;;6.78;4.87;;;;;;;17.00;100.00;97679.75;17914848;33;20075;-62
2022/10/14 12:02:49;;;;;;;6.80;5.07;;;;;;;16.92;100.00;97684.84;17932207;33;20051;-62
2022/10/14 12:12:54;;;;;;;6.78;5.28;;;;;;;16.99;100.00;97678.94;18034526;32;20082;-61
2022/10/14 12:22:59;;;;;;;6.22;4.07;;;;;;;16.98;100.00;97677.34;18222793;32;20099;-62
2022/10/14 12:33:11;;;;;;;4.72;3.75;;;;;;;16.97;100.00;97669.44;18231791;32;20090;-62
2022/10/14 12:43:28;;;;;;;4.60;3.10;;;;;;;17.06;100.00;97662.09;18240612;32;20085;-62
2022/10/14 12:53:32;;;;;;;4.07;2.80;;;;;;;17.03;100.00;97655.31;18241301;32;20065;-62
2022/10/14 13:03:51;;;;;;;4.28;2.78;;;;;;;16.96;100.00;97646.00;18239986;32;20430;-62
2022/10/14 13:13:59;;;;;;;2.15;1.90;;;;;;;16.93;100.00;97661.06;18239642;32;20403;-61
2022/10/14 13:24:20;;;;;;;2.03;1.05;;;;;;;16.83;100.00;97664.00;18240309;32;20120;-61
2022/10/14 13:34:43;;;;;;;1.12;0.60;;;;;;;16.65;100.00;97679.47;18230171;32;20118;-61
2022/10/14 13:44:47;;;;;;;0.40;0.20;;;;;;;16.39;100.00;97666.41;18167393;32;20084;-61
2022/10/14 13:55:13;;;;;;;1.17;0.10;;;;;;;16.25;100.00;97677.37;18153786;32;20074;-61
2022/10/14 14:05:18;;;;;;;0.20;0.17;;;;;;;16.14;100.00;97679.50;18179988;32;20089;-61
2022/10/14 14:15:27;;;;;;;0.47;0.10;;;;;;;15.97;100.00;97691.06;18155700;32;20112;-61
2022/10/14 14:25:30;;;;;;;1.85;0.30;;;;;;;15.80;100.00;97690.87;18152798;32;20088;-61
2022/10/14 14:35:36;;;;;;;0.30;0.15;;;;;;;15.69;100.00;97665.69;18152370;32;20074;-61
2022/10/14 14:45:45;;;;;;;1.23;0.13;;;;;;;15.59;100.00;97651.19;18060308;32;20058;-61
2022/10/14 14:55:53;;;;;;;0.20;0.13;;;;;;;15.52;100.00;97636.34;18039437;32;20516;-61
2022/10/14 15:05:59;;;;;;;0.20;0.10;;;;;;;15.44;100.00;97626.94;18159581;32;20084;-61
2022/10/14 15:16:05;;;;;;;0.20;0.20;;;;;;;15.33;100.00;97629.06;17843270;32;20363;-61
2022/10/14 15:26:32;;;;;;;0.45;0.20;;;;;;;15.23;100.00;97623.81;17825771;33;20071;-61
2022/10/14 15:36:35;;;;;;;0.30;0.10;;;;;;;15.12;100.00;97627.84;17878502;32;20294;-61
2022/10/14 15:57:00;;;;;;;0.73;0.28;;;;;;;15.02;100.00;97593.41;18086114;32;20416;-61
2022/10/14 16:07:02;;;;;;;1.55;0.32;;;;;;;14.95;100.00;97590.31;18109597;32;20472;-61
2022/10/14 16:17:07;;;;;;;2.37;0.80;;;;;;;14.88;100.00;97561.56;18231731;32;20073;-62
2022/10/14 16:27:10;;;;;;;1.33;0.70;;;;;;;14.81;100.00;97528.47;18230643;32;20054;-61
2022/10/14 16:37:13;;;;;;;1.73;0.93;;;;;;;14.74;100.00;97519.91;18230107;32;20114;-61
2022/10/14 16:47:16;;;;;;;1.70;0.98;;;;;;;14.68;100.00;97508.31;18231503;32;20066;-61
2022/10/14 16:57:19;;;;;;;4.80;1.20;;;;;;;14.63;100.00;97494.00;18230247;32;20362;-62
2022/10/14 17:07:22;;;;;;;1.70;1.10;;;;;;;14.59;100.00;97488.31;18231006;32;20110;-61
2022/10/14 17:17:25;;;;;;;1.77;1.10;;;;;;;14.55;100.00;97493.56;18228649;32;20038;-61
2022/10/14 17:27:28;;;;;;;1.50;1.07;;;;;;;14.50;100.00;97488.22;18236741;32;20054;-61
2022/10/14 17:37:31;;;;;;;2.12;1.20;;;;;;;14.45;100.00;97493.72;18230013;32;20449;-61
2022/10/14 17:47:33;;;;;;;1.42;1.17;;;;;;;14.41;100.00;97490.78;18229989;32;20105;-62
2022/10/14 17:57:36;;;;;;;4.03;1.10;;;;;;;14.37;100.00;97488.97;18228950;32;20499;-61
2022/10/14 18:07:39;;;;;;;1.60;1.23;;;;;;;14.33;100.00;97485.25;18217745;32;20092;-62
2022/10/14 18:17:42;;;;;;;1.77;1.05;;;;;;;14.30;100.00;97480.41;18236235;32;20053;-60
2022/10/14 18:27:45;;;;;;;3.00;1.40;;;;;;;14.26;100.00;97469.31;18236242;32;20055;-61
2022/10/14 18:37:48;;;;;;;1.60;1.10;;;;;;;14.23;100.00;97464.47;18235991;32;20062;-61
2022/10/14 18:47:51;;;;;;;1.00;0.80;;;;;;;14.20;100.00;97455.00;18235220;32;20058;-62
2022/10/14 18:57:54;;;;;;;1.80;1.50;;;;;;;14.15;100.00;97457.81;18235783;32;20054;-61
2022/10/14 19:07:59;;;;;;;1.60;1.20;;;;;;;14.12;100.00;97450.25;18235545;32;20062;-61
2022/10/14 19:18:01;;;;;;;2.33;1.10;;;;;;;14.08;100.00;97449.22;18233892;32;20094;-61
2022/10/14 19:28:04;;;;;;;1.77;0.88;;;;;;;14.03;100.00;97441.16;18233626;32;20094;-61
2022/10/14 19:38:06;;;;;;;2.60;0.75;;;;;;;13.97;100.00;97423.34;18234363;32;20073;-61
2022/10/14 19:48:09;;;;;;;5.25;0.95;;;;;;;13.93;100.00;97416.87;18232456;32;20058;-61
2022/10/14 19:58:12;;;;;;;3.67;0.80;;;;;;;13.92;100.00;97398.97;18233316;32;20106;-61
2022/10/14 20:08:15;;;;;;;5.05;0.65;;;;;;;13.92;100.00;97399.75;18232870;32;20105;-61
2022/10/14 20:18:18;;;;;;;6.85;0.62;;;;;;;13.92;100.00;97410.63;18232300;32;20069;-62
2022/10/14 20:28:20;;;;;;;8.85;0.47;;;;;;;13.95;100.00;97401.06;18232084;32;20081;-62
2022/10/14 20:38:23;;;;;;;1.08;0.17;;;;;;;14.03;100.00;97384.06;18230364;32;20058;-62
2022/10/14 20:48:26;;;;;;;2.05;0.13;;;;;;;14.01;100.00;97375.44;18231011;32;20059;-61
2022/10/14 20:58:29;;;;;;;0.20;0.10;;;;;;;14.03;100.00;97381.34;18232679;32;20161;-62
2022/10/14 21:08:32;;;;;;;1.65;0.00;;;;;;;14.03;100.00;97355.00;18231468;32;20081;-62
2022/10/14 21:18:35;;;;;;;2.75;0.30;;;;;;;14.04;100.00;97366.66;18231034;32;20090;-61
2022/10/14 21:28:37;;;;;;;2.85;0.10;;;;;;;14.07;100.00;97347.84;18230602;32;20074;-61
2022/10/14 21:38:41;;;;;;;0.30;0.00;;;;;;;14.09;100.00;97344.84;18237500;32;20054;-61
2022/10/14 21:48:44;;;;;;;1.15;0.30;;;;;;;14.12;100.00;97355.09;18238272;32;20098;-61
2022/10/14 21:58:46;;;;;;;0.65;0.10;;;;;;;14.16;100.00;97334.34;18238231;32;20051;-61
2022/10/14 22:08:51;;;;;;;3.47;0.50;;;;;;;14.21;100.00;97328.00;18237048;32;20055;-61
2022/10/14 22:18:54;;;;;;;;;;;;;;;14.30;100.00;97333.56;18236979;32;20114;-61
2022/10/14 22:29:04;;;;;;;0.52;0.17;;;;;;;14.33;100.00;97311.97;18237732;32;19965;-61
2022/10/14 22:39:11;;;;;;;1.65;0.13;;;;;;;14.39;100.00;97326.31;18235942;32;20059;-61
2022/10/14 22:49:14;;;;;;;0.52;0.20;;;;;;;14.44;100.00;97326.19;18236730;32;20102;-61
2022/10/14 22:59:17;;;;;;;1.30;0.10;;;;;;;14.48;100.00;97326.37;18221783;32;20119;-61
2022/10/14 23:09:20;;;;;;;1.17;0.10;;;;;;;14.52;100.00;97335.56;18234832;32;20366;-61
2022/10/14 23:19:22;;;;;;;0.17;0.10;;;;;;;14.59;100.00;97341.37;18233954;32;20050;-61
2022/10/14 23:29:24;;;;;;;0.00;0.00;;;;;;;14.58;100.00;97346.03;18234746;32;20062;-61
2022/10/14 23:39:27;;;;;;;1.10;0.15;;;;;;;14.61;100.00;97344.62;18234267;32;20096;-61
2022/10/14 23:49:29;;;;;;;0.30;0.15;;;;;;;14.65;100.00;97336.66;18233863;32;20071;-61
2022/10/14 23:59:32;;;;;;;2.30;0.17;;;;;;;14.68;100.00;97355.91;18233318;32;20051;-61
